Time;durP1;ratioP1;P1;durP2;ratioP2;P2;SDS_P1;SDS_P2;PMS_P1;PMS_P2;Temp;Humidity;BMP_temperature;BMP_pressure;BME280_temperature;BME280_humidity;BME280_pressure;Samples;Min_cycle;Max_cycle;Signal;HPM_P1;HPM_P2
2021/09/15 00:01:22;;;;;;;12.48;10.48;;;;;;;;;;5035021;28;20026;-61
2021/09/15 00:03:48;;;;;;;13.60;10.40;;;;;;;;;;5034621;28;20034;-61
2021/09/15 00:06:13;;;;;;;14.27;10.52;;;;;;;;;;5034567;28;20071;-61
2021/09/15 00:08:39;;;;;;;13.18;10.93;;;;;;;;;;5034539;28;20041;-61
2021/09/15 00:11:04;;;;;;;10.82;9.48;;;;;;;;;;5017123;28;20030;-61
2021/09/15 00:13:30;;;;;;;11.38;10.00;;;;;;;;;;5034305;28;20037;-61
2021/09/15 00:15:56;;;;;;;11.73;10.50;;;;;;;;;;5034323;28;20025;-61
2021/09/15 00:18:22;;;;;;;10.98;9.88;;;;;;;;;;5016657;28;20419;-61
2021/09/15 00:20:47;;;;;;;14.65;10.07;;;;;;;;;;5034135;28;20025;-61
2021/09/15 00:23:13;;;;;;;14.60;10.52;;;;;;;;;;5034525;28;20040;-61
2021/09/15 00:25:38;;;;;;;14.70;10.73;;;;;;;;;;5034646;28;20067;-61
2021/09/15 00:28:03;;;;;;;14.73;10.68;;;;;;;;;;5034281;28;20048;-61
2021/09/15 00:30:29;;;;;;;13.05;10.02;;;;;;;;;;5016540;28;20029;-61
2021/09/15 00:32:54;;;;;;;13.60;10.52;;;;;;;;;;5034237;28;20061;-61
2021/09/15 00:35:20;;;;;;;12.63;10.50;;;;;;;;;;5016404;28;20391;-61
2021/09/15 00:37:46;;;;;;;13.65;10.23;;;;;;;;;;5016505;28;20376;-61
2021/09/15 00:40:11;;;;;;;12.68;10.93;;;;;;;;;;5016035;28;20067;-61
2021/09/15 00:42:37;;;;;;;15.32;10.98;;;;;;;;;;5016756;28;20049;-61
2021/09/15 00:45:05;;;;;;;13.30;11.07;;;;;;;;;;5015725;28;20072;-61
2021/09/15 00:47:31;;;;;;;12.95;11.60;;;;;;;;;;5016076;28;20480;-60
2021/09/15 00:49:57;;;;;;;11.50;10.32;;;;;;;;;;5033845;28;20028;-60
2021/09/15 00:52:23;;;;;;;12.77;10.25;;;;;;;;;;5034070;28;20136;-61
2021/09/15 00:54:49;;;;;;;11.75;9.98;;;;;;;;;;5033884;28;20038;-61
2021/09/15 00:57:15;;;;;;;11.48;9.55;;;;;;;;;;5016215;28;20073;-61
2021/09/15 00:59:42;;;;;;;13.75;10.60;;;;;;;;;;5033479;28;20021;-62
2021/09/15 01:02:08;;;;;;;11.60;9.48;;;;;;;;;;5033773;28;20084;-62
2021/09/15 01:04:35;;;;;;;12.05;10.05;;;;;;;;;;5033856;28;20487;-61
2021/09/15 01:07:02;;;;;;;12.73;9.35;;;;;;;;;;5015835;28;20474;-62
2021/09/15 01:09:30;;;;;;;12.60;9.52;;;;;;;;;;5016039;28;20121;-62
2021/09/15 01:11:57;;;;;;;10.98;9.18;;;;;;;;;;5015715;28;20037;-61
2021/09/15 01:14:43;;;;;;;12.55;9.65;;;;;;;;;;5015922;28;20435;-62
2021/09/15 01:17:32;;;;;;;11.25;9.63;;;;;;;;;;4934333;29;20502;-62
2021/09/15 01:20:23;;;;;;;11.60;10.32;;;;;;;;;;5033301;28;20472;-62
2021/09/15 01:23:17;;;;;;;10.52;9.43;;;;;;;;;;5016356;28;20399;-62
2021/09/15 01:26:01;;;;;;;13.15;9.43;;;;;;;;;;5033654;28;20063;-62
2021/09/15 01:28:45;;;;;;;12.32;9.85;;;;;;;;;;5015706;28;20136;-62
2021/09/15 01:31:15;;;;;;;11.20;9.57;;;;;;;;;;5016017;28;20077;-62
2021/09/15 01:33:40;;;;;;;12.02;9.85;;;;;;;;;;5015343;28;20060;-62
2021/09/15 01:36:05;;;;;;;15.23;9.70;;;;;;;;;;5033430;28;20037;-62
2021/09/15 01:38:33;;;;;;;12.40;8.98;;;;;;;;;;5015455;28;20048;-63
2021/09/15 01:40:58;;;;;;;12.73;10.15;;;;;;;;;;5015427;28;20488;-63
2021/09/15 01:43:25;;;;;;;13.35;9.20;;;;;;;;;;5015475;28;20052;-63
2021/09/15 01:45:51;;;;;;;11.65;9.20;;;;;;;;;;5015450;28;20408;-63
2021/09/15 01:48:20;;;;;;;10.60;8.65;;;;;;;;;;5015525;28;20025;-62
2021/09/15 01:50:45;;;;;;;10.10;9.07;;;;;;;;;;5032263;28;20065;-63
2021/09/15 01:53:11;;;;;;;10.07;8.82;;;;;;;;;;5015478;28;20045;-62
2021/09/15 01:55:37;;;;;;;11.52;9.30;;;;;;;;;;5032791;28;20034;-62
2021/09/15 01:58:11;;;;;;;10.90;9.23;;;;;;;;;;5018350;28;20056;-61
2021/09/15 02:00:57;;;;;;;11.95;9.60;;;;;;;;;;5022641;28;20037;-61
2021/09/15 02:03:41;;;;;;;12.80;9.52;;;;;;;;;;5037343;28;20078;-61
2021/09/15 02:06:38;;;;;;;10.90;9.07;;;;;;;;;;5019353;28;20044;-61
2021/09/15 02:09:16;;;;;;;12.48;9.05;;;;;;;;;;5019159;28;20056;-61
2021/09/15 02:11:54;;;;;;;11.32;8.90;;;;;;;;;;5019150;28;20061;-61
2021/09/15 02:14:21;;;;;;;9.75;8.85;;;;;;;;;;5018853;28;20492;-63
2021/09/15 02:16:50;;;;;;;13.18;8.98;;;;;;;;;;5019052;28;20372;-63
2021/09/15 02:19:17;;;;;;;10.88;9.05;;;;;;;;;;5019239;28;20042;-63
2021/09/15 02:22:03;;;;;;;11.60;9.25;;;;;;;;;;5036123;28;20033;-63
2021/09/15 02:24:40;;;;;;;10.82;9.73;;;;;;;;;;5036643;28;20052;-63
2021/09/15 02:27:25;;;;;;;10.60;9.10;;;;;;;;;;5018493;28;20555;-63
2021/09/15 02:29:52;;;;;;;11.15;9.60;;;;;;;;;;5018756;28;20092;-63
2021/09/15 02:32:27;;;;;;;13.18;9.10;;;;;;;;;;5036616;28;20038;-64
2021/09/15 02:35:17;;;;;;;12.82;9.40;;;;;;;;;;5018840;28;20075;-64
2021/09/15 02:38:01;;;;;;;11.80;9.00;;;;;;;;;;5036216;28;20033;-64
2021/09/15 02:40:47;;;;;;;14.50;9.30;;;;;;;;;;5018448;28;20373;-63
2021/09/15 02:43:34;;;;;;;10.45;8.57;;;;;;;;;;5018479;28;20038;-63
2021/09/15 02:46:19;;;;;;;10.90;9.77;;;;;;;;;;5018340;28;20044;-63
2021/09/15 02:49:05;;;;;;;10.63;9.52;;;;;;;;;;5029186;28;20064;-63
2021/09/15 02:51:42;;;;;;;11.70;9.27;;;;;;;;;;5014464;28;20045;-61
2021/09/15 02:54:15;;;;;;;9.43;8.48;;;;;;;;;;5014985;28;20038;-61
2021/09/15 02:57:00;;;;;;;11.32;9.40;;;;;;;;;;5015056;28;20040;-61
2021/09/15 02:59:39;;;;;;;11.40;9.25;;;;;;;;;;5014824;28;20117;-61
2021/09/15 03:02:31;;;;;;;13.68;9.73;;;;;;;;;;5010219;28;20042;-62
2021/09/15 03:05:24;;;;;;;10.30;9.15;;;;;;;;;;5016369;28;20068;-61
2021/09/15 03:08:09;;;;;;;10.75;9.35;;;;;;;;;;5014030;28;20492;-62
2021/09/15 03:10:35;;;;;;;10.82;9.07;;;;;;;;;;5014504;28;20040;-61
2021/09/15 03:13:01;;;;;;;11.32;9.48;;;;;;;;;;5014547;28;20034;-61
2021/09/15 03:15:27;;;;;;;11.77;8.98;;;;;;;;;;5014399;28;20076;-61
2021/09/15 03:17:53;;;;;;;10.85;8.90;;;;;;;;;;5015695;28;20475;-61
2021/09/15 03:20:19;;;;;;;11.60;8.68;;;;;;;;;;5014369;28;20061;-61
2021/09/15 03:22:45;;;;;;;9.60;8.32;;;;;;;;;;5014378;28;20054;-60
2021/09/15 03:25:12;;;;;;;9.05;8.13;;;;;;;;;;5014433;28;20065;-60
2021/09/15 03:27:37;;;;;;;10.77;8.98;;;;;;;;;;5014324;28;20480;-60
2021/09/15 03:30:04;;;;;;;10.32;8.82;;;;;;;;;;5014409;28;20048;-61
2021/09/15 03:32:31;;;;;;;10.93;9.82;;;;;;;;;;5014618;28;20395;-61
2021/09/15 03:34:56;;;;;;;16.75;9.93;;;;;;;;;;5015617;28;20112;-61
2021/09/15 03:37:22;;;;;;;11.43;10.05;;;;;;;;;;5013988;28;20116;-61
2021/09/15 03:39:49;;;;;;;12.35;9.73;;;;;;;;;;5014287;28;20065;-61
2021/09/15 03:42:15;;;;;;;11.93;9.32;;;;;;;;;;5015512;28;20041;-62
2021/09/15 03:44:40;;;;;;;10.00;8.95;;;;;;;;;;5013958;28;20034;-61
2021/09/15 03:47:06;;;;;;;10.23;8.38;;;;;;;;;;5013781;28;20060;-61
2021/09/15 03:49:32;;;;;;;10.07;8.43;;;;;;;;;;5014084;28;20508;-61
2021/09/15 03:51:58;;;;;;;9.13;8.07;;;;;;;;;;5027526;28;20057;-61
2021/09/15 03:54:23;;;;;;;11.52;8.65;;;;;;;;;;5017092;28;20041;-61
2021/09/15 03:56:49;;;;;;;10.05;8.32;;;;;;;;;;5001109;28;20046;-62
2021/09/15 03:59:15;;;;;;;11.63;8.68;;;;;;;;;;5016946;28;20026;-62
2021/09/15 04:01:41;;;;;;;10.50;8.75;;;;;;;;;;5016938;28;20033;-62
2021/09/15 04:04:07;;;;;;;10.00;9.00;;;;;;;;;;5016879;28;20037;-62
2021/09/15 04:06:33;;;;;;;11.70;9.73;;;;;;;;;;5017145;28;20025;-61
2021/09/15 04:08:59;;;;;;;10.38;9.38;;;;;;;;;;5016696;28;20040;-62
2021/09/15 04:11:24;;;;;;;11.93;9.52;;;;;;;;;;5016875;28;20025;-62
2021/09/15 04:13:50;;;;;;;9.70;8.77;;;;;;;;;;5017084;28;20071;-63
2021/09/15 04:16:16;;;;;;;12.38;8.88;;;;;;;;;;5016699;28;20033;-63
2021/09/15 04:18:41;;;;;;;11.02;8.40;;;;;;;;;;5016372;28;20557;-62
2021/09/15 04:21:07;;;;;;;12.93;9.35;;;;;;;;;;5016460;28;20033;-62
2021/09/15 04:31:34;;;;;;;10.48;9.20;;;;;;;;;;5016491;28;20041;-63
2021/09/15 04:34:01;;;;;;;13.45;8.88;;;;;;;;;;5016177;28;20365;-64
2021/09/15 04:36:31;;;;;;;10.20;8.57;;;;;;;;;;5016315;28;20539;-63
2021/09/15 04:39:01;;;;;;;9.43;8.27;;;;;;;;;;5000340;28;20496;-63
2021/09/15 04:41:28;;;;;;;9.73;8.73;;;;;;;;;;5016035;28;20488;-62
2021/09/15 04:43:54;;;;;;;10.20;8.93;;;;;;;;;;5016075;28;20029;-64
2021/09/15 04:46:20;;;;;;;9.68;8.80;;;;;;;;;;4999871;28;20030;-65
2021/09/15 04:48:45;;;;;;;10.95;8.70;;;;;;;;;;5033945;28;20029;-64
2021/09/15 04:51:11;;;;;;;10.27;9.20;;;;;;;;;;5012384;28;20129;-62
2021/09/15 04:53:38;;;;;;;9.82;8.73;;;;;;;;;;4996723;28;20038;-62
2021/09/15 04:59:39;;;;;;;9.50;8.60;;;;;;;;;;5014563;28;20064;-62
2021/09/15 05:05:41;;;;;;;8.43;7.55;;;;;;;;;;5014431;28;20180;-62
2021/09/15 05:15:52;;;;;;;9.35;7.75;;;;;;;;;;5014090;28;20037;-62
2021/09/15 05:21:53;;;;;;;8.75;7.63;;;;;;;;;;5014010;28;20491;-62
2021/09/15 05:27:54;;;;;;;9.90;8.73;;;;;;;;;;5013939;28;20457;-62
2021/09/15 05:33:56;;;;;;;10.10;8.70;;;;;;;;;;5014119;28;20025;-62
2021/09/15 05:39:59;;;;;;;11.27;8.52;;;;;;;;;;5013798;28;20088;-62
2021/09/15 05:46:00;;;;;;;9.90;8.73;;;;;;;;;;5014010;28;20037;-62
2021/09/15 05:55:37;;;;;;;12.05;9.05;;;;;;;;;;5033589;28;20028;-62
2021/09/15 05:58:38;;;;;;;9.52;8.70;;;;;;;;;;5015573;28;20033;-62
2021/09/15 06:01:07;;;;;;;11.88;8.95;;;;;;;;;;5015281;28;20483;-62
2021/09/15 06:03:33;;;;;;;13.05;9.32;;;;;;;;;;5015351;28;20031;-62
2021/09/15 06:06:14;;;;;;;12.00;9.25;;;;;;;;;;5033042;28;20137;-62
2021/09/15 06:08:43;;;;;;;11.68;8.95;;;;;;;;;;5015234;28;20052;-62
2021/09/15 06:11:09;;;;;;;14.95;9.35;;;;;;;;;;5014951;28;20067;-62
2021/09/15 06:13:35;;;;;;;10.90;9.68;;;;;;;;;;5014837;28;20128;-62
2021/09/15 06:16:00;;;;;;;13.43;10.40;;;;;;;;;;5014905;28;20044;-62
2021/09/15 06:22:34;;;;;;;11.68;10.23;;;;;;;;;;5033432;28;20031;-62
2021/09/15 06:39:17;;;;;;;13.93;11.73;;;;;;;;;;5033239;28;20024;-62
2021/09/15 06:45:17;;;;;;;15.20;12.23;;;;;;;;;;5036062;28;20024;-62
2021/09/15 06:55:00;;;;;;;17.40;12.48;;;;;;;;;;5036583;28;20380;-62
2021/09/15 07:01:00;;;;;;;15.13;11.68;;;;;;;;;;5036497;28;20024;-62
2021/09/15 07:07:02;;;;;;;16.38;12.57;;;;;;;;;;5036145;28;20116;-62
2021/09/15 07:13:03;;;;;;;15.55;12.00;;;;;;;;;;5036284;28;20024;-62
2021/09/15 07:19:03;;;;;;;10.93;8.77;;;;;;;;;;5036128;28;20033;-62
2021/09/15 07:25:05;;;;;;;18.40;13.23;;;;;;;;;;5036036;28;20152;-63
2021/09/15 07:31:05;;;;;;;19.23;12.90;;;;;;;;;;5035666;28;20024;-62
2021/09/15 07:40:41;;;;;;;19.35;11.95;;;;;;;;;;5035050;28;20040;-63
2021/09/15 07:43:06;;;;;;;16.63;12.80;;;;;;;;;;5035057;28;20037;-63
2021/09/15 07:45:31;;;;;;;16.27;11.85;;;;;;;;;;5035134;28;20392;-63
2021/09/15 07:47:57;;;;;;;13.25;10.18;;;;;;;;;;5017280;28;20034;-62
2021/09/15 07:50:22;;;;;;;15.90;10.07;;;;;;;;;;5034917;28;20025;-62
2021/09/15 07:52:48;;;;;;;14.20;10.80;;;;;;;;;;5016866;28;20049;-63
2021/09/15 07:58:49;;;;;;;13.63;10.52;;;;;;;;;;5035395;28;20040;-62
2021/09/15 08:04:49;;;;;;;14.60;10.75;;;;;;;;;;5035264;28;20478;-62
2021/09/15 08:10:51;;;;;;;11.43;10.27;;;;;;;;;;5035147;28;20040;-62
2021/09/15 08:16:52;;;;;;;11.88;8.85;;;;;;;;;;5034702;28;20079;-63
2021/09/15 08:22:52;;;;;;;10.60;8.00;;;;;;;;;;5034919;28;20155;-63
2021/09/15 08:28:53;;;;;;;11.52;9.23;;;;;;;;;;5034844;28;20511;-64
2021/09/15 08:34:53;;;;;;;9.38;7.97;;;;;;;;;;5034431;28;20029;-65
2021/09/15 08:40:55;;;;;;;13.38;9.38;;;;;;;;;;5034569;28;20171;-64
2021/09/15 08:46:57;;;;;;;11.90;7.82;;;;;;;;;;5034485;28;20032;-64
2021/09/15 08:56:45;;;;;;;11.25;10.15;;;;;;;;;;5034167;28;20511;-64
2021/09/15 09:06:52;;;;;;;11.80;9.60;;;;;;;;;;5033182;28;20195;-64
2021/09/15 09:12:53;;;;;;;9.52;8.52;;;;;;;;;;5034128;28;20033;-64
2021/09/15 09:18:54;;;;;;;6.68;5.63;;;;;;;;;;5033764;28;20028;-64
2021/09/15 09:24:54;;;;;;;11.93;7.32;;;;;;;;;;5034233;28;20040;-62
2021/09/15 09:30:56;;;;;;;8.15;7.35;;;;;;;;;;5033897;28;20032;-62
2021/09/15 09:37:04;;;;;;;7.97;7.18;;;;;;;;;;5033917;28;20044;-62
2021/09/15 09:43:39;;;;;;;8.10;6.75;;;;;;;;;;5033536;28;20020;-62
2021/09/15 10:00:37;;;;;;;10.80;8.23;;;;;;;;;;4972636;28;20043;-61
2021/09/15 10:10:36;;;;;;;10.65;5.75;;;;;;;;;;4972773;28;20025;-61
2021/09/15 10:13:02;;;;;;;6.25;5.35;;;;;;;;;;4972549;28;20038;-61
2021/09/15 10:15:28;;;;;;;7.97;7.20;;;;;;;;;;4971228;28;20033;-61
2021/09/15 10:17:55;;;;;;;6.88;5.88;;;;;;;;;;4972411;28;20198;-61
2021/09/15 10:20:28;;;;;;;7.63;5.80;;;;;;;;;;4975293;28;20122;-61
2021/09/15 10:26:38;;;;;;;8.82;6.95;;;;;;;;;;4997752;28;20064;-61
2021/09/15 10:43:37;;;;;;;7.22;6.03;;;;;;;;;;4997468;28;20085;-61
2021/09/15 10:49:40;;;;;;;6.90;6.20;;;;;;;;;;4997105;28;20098;-61
2021/09/15 11:10:00;;;;;;;5.53;5.05;;;;;;;;;;4994977;28;20029;-61
2021/09/15 11:20:12;;;;;;;6.20;5.60;;;;;;;;;;4994553;28;20033;-61
2021/09/15 11:26:12;;;;;;;6.60;5.97;;;;;;;;;;4994673;28;20084;-61
2021/09/15 11:36:21;;;;;;;5.40;5.00;;;;;;;;;;5035766;28;20088;-63
2021/09/15 11:42:26;;;;;;;5.53;5.03;;;;;;;;;;5035768;28;20023;-63
2021/09/15 11:48:27;;;;;;;5.95;5.28;;;;;;;;;;5035531;28;20375;-63
2021/09/15 11:58:40;;;;;;;5.10;4.60;;;;;;;;;;5035239;28;20068;-64
2021/09/15 12:04:55;;;;;;;5.45;4.97;;;;;;;;;;5035308;28;20031;-63
2021/09/15 12:10:56;;;;;;;5.93;4.95;;;;;;;;;;5035167;28;20102;-64
2021/09/15 12:17:01;;;;;;;5.55;4.38;;;;;;;;;;5034916;28;20415;-64
2021/09/15 12:36:10;;;;;;;5.65;4.68;;;;;;;;;;5009659;28;19916;-64
2021/09/15 12:38:47;;;;;;;4.45;4.13;;;;;;;;;;5014365;28;20038;-64
2021/09/15 12:41:13;;;;;;;4.95;4.35;;;;;;;;;;5014156;28;20034;-64
2021/09/15 12:43:38;;;;;;;4.43;4.13;;;;;;;;;;5014323;28;20113;-64
2021/09/15 12:46:19;;;;;;;5.55;4.60;;;;;;;;;;5014191;28;20507;-64
2021/09/15 12:48:45;;;;;;;5.15;4.65;;;;;;;;;;4996879;28;20095;-64
2021/09/15 12:51:10;;;;;;;6.90;4.63;;;;;;;;;;4996803;28;20474;-65
2021/09/15 12:53:43;;;;;;;4.85;4.45;;;;;;;;;;5014082;28;20033;-61
2021/09/15 12:56:09;;;;;;;4.57;4.18;;;;;;;;;;5013840;28;20034;-61
2021/09/15 12:58:35;;;;;;;4.47;4.07;;;;;;;;;;5013956;28;20029;-60
2021/09/15 13:01:00;;;;;;;8.02;4.60;;;;;;;;;;5014024;28;20056;-60
2021/09/15 13:03:36;;;;;;;5.43;4.68;;;;;;;;;;5014100;28;20026;-60
2021/09/15 13:06:01;;;;;;;5.88;4.57;;;;;;;;;;5013806;28;20037;-60
2021/09/15 13:08:27;;;;;;;4.60;4.30;;;;;;;;;;5013371;28;20014;-60
2021/09/15 13:10:55;;;;;;;5.00;4.60;;;;;;;;;;5014006;28;20030;-61
2021/09/15 13:13:21;;;;;;;7.88;6.45;;;;;;;;;;5013862;28;20416;-61
2021/09/15 13:15:47;;;;;;;5.45;5.05;;;;;;;;;;5013752;28;20032;-60
2021/09/15 13:33:13;;;;;;;5.78;5.38;;;;;;;;;;6149476;22;1447517;-62
2021/09/15 13:35:38;;;;;;;6.65;6.05;;;;;;;;;;6194249;23;20012;-62
2021/09/15 13:38:04;;;;;;;6.28;5.38;;;;;;;;;;6194132;23;20008;-62
2021/09/15 13:40:29;;;;;;;7.63;6.88;;;;;;;;;;6192601;23;20008;-62
2021/09/15 13:42:55;;;;;;;8.32;6.15;;;;;;;;;;6194102;23;19993;-63
2021/09/15 13:45:20;;;;;;;8.65;7.78;;;;;;;;;;6192287;23;20001;-63
2021/09/15 13:47:46;;;;;;;7.43;6.38;;;;;;;;;;6194217;23;20023;-62
2021/09/15 13:50:16;;;;;;;9.05;6.88;;;;;;;;;;6194552;23;20001;-62
2021/09/15 13:52:42;;;;;;;7.65;5.93;;;;;;;;;;6192642;23;20032;-62
2021/09/15 13:55:07;;;;;;;7.32;6.55;;;;;;;;;;6194160;23;20023;-62
2021/09/15 13:57:35;;;;;;;13.82;6.80;;;;;;;;;;6194164;23;20013;-63
2021/09/15 14:00:00;;;;;;;6.97;6.30;;;;;;;;;;6194487;23;20008;-62
2021/09/15 14:02:26;;;;;;;10.40;7.55;;;;;;;;;;6192977;23;20012;-62
2021/09/15 14:04:51;;;;;;;9.27;7.45;;;;;;;;;;6194313;23;20324;-63
2021/09/15 14:07:17;;;;;;;13.05;7.70;;;;;;;;;;6194344;23;20001;-63
2021/09/15 14:09:43;;;;;;;9.10;6.93;;;;;;;;;;6194155;23;19997;-63
2021/09/15 14:12:08;;;;;;;6.50;5.85;;;;;;;;;;6194205;23;20143;-62
2021/09/15 14:14:34;;;;;;;7.20;6.35;;;;;;;;;;6194359;23;19997;-62
2021/09/15 14:16:59;;;;;;;12.15;8.13;;;;;;;;;;6194138;23;20019;-63
2021/09/15 14:19:25;;;;;;;10.85;7.70;;;;;;;;;;6194514;23;19997;-63
2021/09/15 14:21:50;;;;;;;15.00;9.25;;;;;;;;;;6193744;23;20033;-63
2021/09/15 14:24:16;;;;;;;14.75;9.43;;;;;;;;;;6194220;23;20047;-63
2021/09/15 14:26:42;;;;;;;18.48;8.73;;;;;;;;;;6193879;23;20054;-63
2021/09/15 14:29:07;;;;;;;13.63;8.68;;;;;;;;;;6193824;23;19997;-60
2021/09/15 14:31:33;;;;;;;28.70;12.15;;;;;;;;;;6193025;23;20024;-60
2021/09/15 14:33:59;;;;;;;20.95;10.90;;;;;;;;;;6188137;23;20008;-60
2021/09/15 14:36:24;;;;;;;11.25;8.38;;;;;;;;;;6185906;23;20005;-61
2021/09/15 14:38:50;;;;;;;53.15;15.93;;;;;;;;;;6187276;23;20020;-61
2021/09/15 14:41:19;;;;;;;16.98;13.40;;;;;;;;;;6187405;23;20516;-61
2021/09/15 14:43:44;;;;;;;12.60;8.43;;;;;;;;;;6187211;23;20008;-61
2021/09/15 14:46:10;;;;;;;10.15;8.15;;;;;;;;;;6187023;23;20001;-61
2021/09/15 14:48:36;;;;;;;43.58;14.50;;;;;;;;;;6185682;23;20329;-61
2021/09/15 14:51:02;;;;;;;8.75;7.47;;;;;;;;;;6187100;23;20003;-61
2021/09/15 14:53:28;;;;;;;11.32;8.32;;;;;;;;;;6187121;23;20059;-61
2021/09/15 14:55:53;;;;;;;9.82;8.02;;;;;;;;;;6187286;23;20001;-61
2021/09/15 14:58:19;;;;;;;11.23;7.93;;;;;;;;;;6187101;23;20013;-61
2021/09/15 15:00:44;;;;;;;9.90;8.15;;;;;;;;;;6186981;23;20318;-61
2021/09/15 15:03:11;;;;;;;9.77;7.43;;;;;;;;;;6187027;23;20009;-61
2021/09/15 15:05:38;;;;;;;8.63;7.43;;;;;;;;;;6186903;23;20019;-61
2021/09/15 15:08:04;;;;;;;11.27;8.23;;;;;;;;;;6186423;23;20055;-61
2021/09/15 15:10:29;;;;;;;8.30;6.90;;;;;;;;;;6185000;23;19996;-61
2021/09/15 15:12:55;;;;;;;11.20;8.05;;;;;;;;;;6187161;23;20027;-61
2021/09/15 15:15:21;;;;;;;7.75;6.93;;;;;;;;;;6186420;23;20298;-61
2021/09/15 15:17:46;;;;;;;9.10;6.82;;;;;;;;;;6186671;23;20312;-61
2021/09/15 15:20:13;;;;;;;7.95;7.18;;;;;;;;;;6185585;23;19997;-60
2021/09/15 15:22:39;;;;;;;7.60;6.78;;;;;;;;;;6186789;23;20009;-61
2021/09/15 15:25:06;;;;;;;10.70;7.32;;;;;;;;;;6187069;23;20377;-61
2021/09/15 15:27:33;;;;;;;9.65;6.45;;;;;;;;;;6187035;23;20106;-61
2021/09/15 15:29:59;;;;;;;8.07;7.05;;;;;;;;;;6187044;23;19997;-61
2021/09/15 15:32:29;;;;;;;8.55;6.78;;;;;;;;;;6186685;23;20445;-61
2021/09/15 15:34:55;;;;;;;10.50;6.07;;;;;;;;;;6187018;23;20428;-61
2021/09/15 15:37:21;;;;;;;7.60;6.68;;;;;;;;;;6186512;23;20084;-61
2021/09/15 15:39:46;;;;;;;8.00;7.10;;;;;;;;;;6186855;23;20032;-60
2021/09/15 15:42:12;;;;;;;7.85;6.78;;;;;;;;;;6186444;23;20084;-61
2021/09/15 15:44:37;;;;;;;9.18;6.97;;;;;;;;;;6186059;23;20001;-60
2021/09/15 15:47:03;;;;;;;12.52;7.30;;;;;;;;;;6186783;23;20084;-60
2021/09/15 15:49:28;;;;;;;7.90;7.10;;;;;;;;;;6173179;23;20060;-60
2021/09/15 15:51:54;;;;;;;9.30;7.18;;;;;;;;;;6181730;23;20008;-61
2021/09/15 15:54:20;;;;;;;9.75;7.60;;;;;;;;;;6181747;23;20013;-60
2021/09/15 15:56:45;;;;;;;10.18;8.32;;;;;;;;;;6181549;23;20356;-60
2021/09/15 15:59:11;;;;;;;12.90;10.32;;;;;;;;;;6181297;23;20044;-60
2021/09/15 16:01:38;;;;;;;15.75;10.02;;;;;;;;;;6181512;23;20012;-60
2021/09/15 16:04:05;;;;;;;11.05;7.82;;;;;;;;;;6180041;23;20009;-61
2021/09/15 16:06:31;;;;;;;12.40;6.90;;;;;;;;;;6181556;23;20302;-61
2021/09/15 16:08:57;;;;;;;11.88;7.78;;;;;;;;;;6179806;23;20009;-61
2021/09/15 16:11:23;;;;;;;10.40;7.70;;;;;;;;;;6181481;23;20131;-61
2021/09/15 16:13:48;;;;;;;11.75;7.80;;;;;;;;;;6181464;23;20009;-61
2021/09/15 16:16:14;;;;;;;10.95;7.85;;;;;;;;;;6181317;23;20492;-61
2021/09/15 16:18:39;;;;;;;8.32;7.53;;;;;;;;;;6179035;23;20013;-61
2021/09/15 16:21:05;;;;;;;9.18;7.82;;;;;;;;;;6181972;23;20037;-60
2021/09/15 16:23:32;;;;;;;11.23;7.75;;;;;;;;;;6181286;23;20064;-61
2021/09/15 16:25:58;;;;;;;9.38;8.30;;;;;;;;;;6181561;23;20028;-60
2021/09/15 16:28:23;;;;;;;9.70;7.38;;;;;;;;;;6181632;23;20017;-60
2021/09/15 16:30:48;;;;;;;8.40;7.45;;;;;;;;;;6181396;23;20001;-59
2021/09/15 16:33:14;;;;;;;12.88;7.90;;;;;;;;;;6181618;23;20017;-60
2021/09/15 16:35:40;;;;;;;8.80;7.90;;;;;;;;;;6181323;23;20096;-61
2021/09/15 16:38:05;;;;;;;9.60;7.88;;;;;;;;;;6181143;23;20036;-61
2021/09/15 16:40:31;;;;;;;10.07;7.50;;;;;;;;;;6181441;23;20000;-60
2021/09/15 16:42:56;;;;;;;11.93;8.43;;;;;;;;;;6179691;23;20009;-61
2021/09/15 16:45:22;;;;;;;10.05;7.43;;;;;;;;;;6180207;23;20421;-60
2021/09/15 16:47:48;;;;;;;9.70;7.70;;;;;;;;;;6180179;23;20013;-60
2021/09/15 16:50:15;;;;;;;8.88;7.97;;;;;;;;;;6181316;23;20032;-61
2021/09/15 16:52:40;;;;;;;8.07;7.25;;;;;;;;;;6181481;23;20013;-61
2021/09/15 16:55:06;;;;;;;11.25;7.68;;;;;;;;;;6181488;23;20341;-61
2021/09/15 16:57:32;;;;;;;10.35;8.07;;;;;;;;;;6181233;23;20012;-61
2021/09/15 16:59:57;;;;;;;11.73;8.00;;;;;;;;;;6181196;23;20008;-61
2021/09/15 17:02:23;;;;;;;12.07;8.60;;;;;;;;;;6181672;23;20009;-61
2021/09/15 17:04:48;;;;;;;11.70;8.80;;;;;;;;;;6180571;23;20092;-61
2021/09/15 17:07:14;;;;;;;14.30;8.63;;;;;;;;;;6180200;23;20340;-61
2021/09/15 17:09:39;;;;;;;11.57;8.95;;;;;;;;;;6180549;23;20060;-61
2021/09/15 17:12:05;;;;;;;13.77;9.18;;;;;;;;;;6181391;23;20452;-62
2021/09/15 17:14:31;;;;;;;12.10;9.75;;;;;;;;;;6181169;23;20091;-61
2021/09/15 17:16:56;;;;;;;15.80;12.23;;;;;;;;;;6181578;23;20036;-60
2021/09/15 17:19:22;;;;;;;18.13;12.68;;;;;;;;;;6179226;23;20011;-61
2021/09/15 17:21:49;;;;;;;17.73;12.43;;;;;;;;;;6183538;23;20091;-67
2021/09/15 17:24:25;;;;;;;20.45;14.20;;;;;;;;;;6183458;23;20088;-67
2021/09/15 17:27:08;;;;;;;19.08;12.90;;;;;;;;;;6184923;23;20005;-67
2021/09/15 17:29:40;;;;;;;33.00;20.67;;;;;;;;;;6183268;23;20001;-67
2021/09/15 17:32:07;;;;;;;69.80;40.38;;;;;;;;;;6184375;23;20090;-67
2021/09/15 17:34:38;;;;;;;84.70;45.85;;;;;;;;;;6184974;23;20350;-67
2021/09/15 17:37:23;;;;;;;46.75;27.17;;;;;;;;;;6185068;23;20005;-67
2021/09/15 17:39:55;;;;;;;28.08;18.70;;;;;;;;;;6185074;23;20341;-67
2021/09/15 17:42:24;;;;;;;33.10;19.40;;;;;;;;;;6184922;23;20032;-67
2021/09/15 17:44:50;;;;;;;32.05;19.50;;;;;;;;;;6185229;23;20004;-67
2021/09/15 17:47:21;;;;;;;25.50;16.52;;;;;;;;;;6185497;23;20001;-67
2021/09/15 17:49:56;;;;;;;27.08;17.05;;;;;;;;;;6184711;23;20055;-67
2021/09/15 17:52:21;;;;;;;32.22;19.95;;;;;;;;;;6184961;23;20005;-67
2021/09/15 17:54:57;;;;;;;31.30;19.20;;;;;;;;;;6185177;23;20004;-67
2021/09/15 18:00:38;;;;;;;25.40;15.98;;;;;;;;;;6184685;23;20459;-67
2021/09/15 18:03:07;;;;;;;22.95;15.88;;;;;;;;;;6185239;23;20001;-67
2021/09/15 18:05:52;;;;;;;22.65;15.43;;;;;;;;;;6185061;23;20005;-67
2021/09/15 18:08:23;;;;;;;23.40;15.75;;;;;;;;;;6186498;23;20005;-66
2021/09/15 18:10:57;;;;;;;;;;;;;;;;;;6187610;23;20414;-68
2021/09/15 18:13:41;;;;;;;23.83;15.68;;;;;;;;;;6187125;23;19912;-62
2021/09/15 18:16:10;;;;;;;26.02;15.70;;;;;;;;;;6186949;23;20372;-62
2021/09/15 18:18:37;;;;;;;27.15;16.70;;;;;;;;;;6185382;23;20079;-62
2021/09/15 18:21:04;;;;;;;30.60;17.73;;;;;;;;;;6186532;23;20459;-62
2021/09/15 18:23:30;;;;;;;34.40;21.60;;;;;;;;;;6186017;23;20001;-62
2021/09/15 18:25:57;;;;;;;37.67;22.98;;;;;;;;;;6186377;23;20309;-62
2021/09/15 18:28:27;;;;;;;35.80;21.20;;;;;;;;;;6186670;23;20028;-62
2021/09/15 18:31:07;;;;;;;38.85;23.33;;;;;;;;;;6186801;23;20009;-62
2021/09/15 18:33:50;;;;;;;41.40;24.33;;;;;;;;;;6186326;23;20151;-62
2021/09/15 18:36:18;;;;;;;44.83;27.08;;;;;;;;;;6186526;23;20232;-63
2021/09/15 18:38:47;;;;;;;43.78;25.80;;;;;;;;;;6185093;23;20416;-62
2021/09/15 18:41:26;;;;;;;46.92;26.67;;;;;;;;;;6185691;23;20005;-62
2021/09/15 18:43:52;;;;;;;41.15;24.50;;;;;;;;;;6186539;23;20437;-62
2021/09/15 18:46:32;;;;;;;36.90;22.30;;;;;;;;;;6186363;23;20080;-62
2021/09/15 18:49:08;;;;;;;34.47;22.00;;;;;;;;;;6186489;23;20005;-61
2021/09/15 18:51:35;;;;;;;34.03;21.17;;;;;;;;;;6186572;23;20699;-61
2021/09/15 18:54:05;;;;;;;36.33;22.23;;;;;;;;;;6186499;23;20005;-61
2021/09/15 18:56:42;;;;;;;34.17;20.70;;;;;;;;;;6187109;23;20012;-61
2021/09/15 18:59:11;;;;;;;37.60;22.90;;;;;;;;;;6186034;23;20373;-62
2021/09/15 19:01:42;;;;;;;36.73;22.53;;;;;;;;;;6186170;23;20384;-61
2021/09/15 19:04:13;;;;;;;41.35;25.42;;;;;;;;;;6185970;23;20056;-62
2021/09/15 19:06:40;;;;;;;37.08;23.70;;;;;;;;;;6184323;23;20005;-63
2021/09/15 19:09:08;;;;;;;42.05;25.00;;;;;;;;;;6185194;23;19997;-62
2021/09/15 19:11:35;;;;;;;39.97;24.88;;;;;;;;;;6185782;23;20016;-62
2021/09/15 19:14:01;;;;;;;40.38;24.15;;;;;;;;;;6185919;23;20001;-69
2021/09/15 19:16:36;;;;;;;37.75;24.33;;;;;;;;;;6185354;23;20078;-69
2021/09/15 19:19:05;;;;;;;41.40;24.52;;;;;;;;;;6185639;23;20027;-68
2021/09/15 19:21:36;;;;;;;36.08;23.92;;;;;;;;;;6186569;23;20435;-69
2021/09/15 19:24:07;;;;;;;38.08;23.08;;;;;;;;;;6186226;23;20001;-69
2021/09/15 19:26:41;;;;;;;32.92;21.27;;;;;;;;;;6186105;23;20011;-69
2021/09/15 19:29:11;;;;;;;37.72;23.30;;;;;;;;;;6184464;23;20090;-68
2021/09/15 19:31:37;;;;;;;;;;;;;;;;;;6185885;23;20021;-68
2021/09/15 19:34:03;;;;;;;33.08;21.15;;;;;;;;;;6185991;23;19969;-68
2021/09/15 19:36:36;;;;;;;31.63;21.38;;;;;;;;;;6184191;23;20386;-69
2021/09/15 19:39:14;;;;;;;32.17;20.10;;;;;;;;;;6185900;23;20005;-68
2021/09/15 19:41:42;;;;;;;31.42;20.33;;;;;;;;;;6185739;23;20068;-68
2021/09/15 19:44:15;;;;;;;32.28;19.80;;;;;;;;;;6185790;23;20001;-69
2021/09/15 19:46:56;;;;;;;23.98;17.63;;;;;;;;;;6186051;23;20476;-69
2021/09/15 19:49:46;;;;;;;28.48;18.38;;;;;;;;;;6184859;23;20321;-69
2021/09/15 19:52:19;;;;;;;27.30;17.33;;;;;;;;;;6186686;23;20099;-68
2021/09/15 19:54:54;;;;;;;24.52;16.67;;;;;;;;;;6187201;23;20005;-69
2021/09/15 19:57:20;;;;;;;26.02;17.13;;;;;;;;;;6185015;23;20059;-68